Terminal Aerodrome Forecast
Issued by NWS

Home | Current Version | Previous Version | Text Only | Print | Product List | Glossary On
Versions: 1 2 3 4 5 6 7 8 9 10 11 12
000
FTAK31 PANC 281728
TAFATK
TAF
PATK 281728Z 2818/2918 VRB03KT P6SM OVC050
      TEMPO 2818/2822 4SM -SN OVC030
     FM282200 VRB03KT 6SM -SN OVC035
     FM291400 VRB03KT 2SM -SN OVC020=

USA.gov is the U.S. government's official web portal to all federal, state and local government web resources and services.